Apache Junction, Arizona
Current Conditions -  °F | °C
As of 7:47 PM on Thursday 27 Nov 2014 (Local Time) from KIWA Reporting Station
Clear Clear  
Wind Chill: 59°   Ceiling: Unl
Heat Index: 59°   Visibility: 20mi
Dew Point: 27°   Wind: 6mph
Humidity: 29%   Direction: 80°E
Pressure: 30.1"   Gusts: NA
Location:  33.42°N, 111.54°W
Report Text: KIWA 280247Z 08005KT 20SM SKC 15/M03 A3010
Loading
Personal Weather Stations






























Interactive Weather Map New forecast layout! Learn more

10-Day Weather Forecast

Advertisements
Track Severe Weather on mobile